createdAt,value
2023-03-29T00:00:01.738Z,4.75
2023-03-29T00:02:38.544Z,3.38
2023-03-29T00:05:06.782Z,2.92
2023-03-29T00:07:36.241Z,4.10
2023-03-29T00:10:06.014Z,6.55
2023-03-29T00:12:33.033Z,4.20
2023-03-29T00:14:59.812Z,5.07
2023-03-29T00:17:26.336Z,4.60
2023-03-29T00:19:54.987Z,3.60
2023-03-29T00:22:21.990Z,3.78
2023-03-29T00:24:49.197Z,4.38
2023-03-29T00:27:16.550Z,3.45
2023-03-29T00:29:42.999Z,5.05
2023-03-29T00:32:09.593Z,6.13
2023-03-29T00:34:36.164Z,3.22
2023-03-29T00:37:04.124Z,4.65
2023-03-29T00:39:31.064Z,6.97
2023-03-29T00:41:57.776Z,4.13
2023-03-29T00:44:57.748Z,3.67
2023-03-29T00:47:30.080Z,3.50
2023-03-29T00:50:02.639Z,3.47
2023-03-29T00:52:32.098Z,3.53
2023-03-29T00:55:05.877Z,2.10
2023-03-29T00:57:33.599Z,7.18
2023-03-29T01:00:04.848Z,3.42
2023-03-29T01:02:34.767Z,4.28
2023-03-29T01:05:09.937Z,5.00
2023-03-29T01:07:48.158Z,4.63
2023-03-29T01:10:20.419Z,4.63
2023-03-29T01:12:52.598Z,4.88
2023-03-29T01:15:24.015Z,7.10
2023-03-29T01:17:53.462Z,3.22
2023-03-29T01:20:28.009Z,2.08
2023-03-29T01:23:14.419Z,3.00
2023-03-29T01:26:07.004Z,3.75
2023-03-29T01:28:39.182Z,2.97
2023-03-29T01:31:11.895Z,4.47
2023-03-29T01:33:48.468Z,3.90
2023-03-29T01:36:27.522Z,3.33
2023-03-29T01:38:57.865Z,3.60
2023-03-29T01:41:36.212Z,4.32
2023-03-29T01:44:09.928Z,5.57
2023-03-29T01:46:46.844Z,4.85
2023-03-29T01:49:28.669Z,3.60
2023-03-29T01:52:01.192Z,5.65
2023-03-29T01:54:35.577Z,6.70
2023-03-29T01:57:04.889Z,6.35
2023-03-29T01:59:34.396Z,6.13
2023-03-29T02:02:05.487Z,4.68
2023-03-29T02:04:36.013Z,5.20
2023-03-29T02:07:05.201Z,4.25
2023-03-29T02:09:33.551Z,5.70
2023-03-29T02:12:06.486Z,3.58
2023-03-29T02:14:32.994Z,4.72
2023-03-29T02:17:23.092Z,5.97
2023-03-29T02:19:55.140Z,3.80
2023-03-29T02:22:33.384Z,3.65
2023-03-29T02:25:04.681Z,3.90
2023-03-29T02:27:31.627Z,5.30
2023-03-29T02:29:58.324Z,4.55
2023-03-29T02:32:40.179Z,5.38
2023-03-29T02:35:14.185Z,3.65
2023-03-29T02:37:49.530Z,4.15
2023-03-29T02:40:17.506Z,5.10
2023-03-29T02:42:45.675Z,2.67
2023-03-29T02:45:15.935Z,3.90
2023-03-29T02:47:46.536Z,4.78
2023-03-29T02:50:13.292Z,5.32
2023-03-29T02:52:48.516Z,7.82
2023-03-29T02:55:17.368Z,4.47
2023-03-29T02:57:43.842Z,2.83
2023-03-29T03:00:11.833Z,5.07
2023-03-29T03:02:38.620Z,3.55
2023-03-29T03:05:07.031Z,3.90
2023-03-29T03:07:33.769Z,4.13
2023-03-29T03:10:00.407Z,3.42
2023-03-29T03:12:27.132Z,4.72
2023-03-29T03:14:54.635Z,5.10
2023-03-29T03:17:23.008Z,2.83
2023-03-29T03:19:49.673Z,4.68
2023-03-29T03:22:16.614Z,5.22
2023-03-29T03:24:43.153Z,4.60
2023-03-29T03:27:10.851Z,2.13
2023-03-29T03:29:38.676Z,4.95
2023-03-29T03:32:46.160Z,2.20
2023-03-29T03:35:21.989Z,3.50
2023-03-29T03:37:48.539Z,3.20
2023-03-29T03:40:17.465Z,7.05
2023-03-29T03:42:44.426Z,4.35
2023-03-29T03:45:12.238Z,5.65
2023-03-29T03:47:38.885Z,5.05
2023-03-29T03:50:33.938Z,3.13
2023-03-29T03:53:00.982Z,4.68
2023-03-29T03:55:36.423Z,5.15
2023-03-29T03:58:09.248Z,4.72
2023-03-29T04:00:35.720Z,6.03
2023-03-29T04:03:21.710Z,4.35
2023-03-29T04:05:48.865Z,4.95
2023-03-29T04:08:17.364Z,4.35
2023-03-29T04:11:02.779Z,4.45
2023-03-29T04:13:35.848Z,5.80
2023-03-29T04:16:24.747Z,6.60
2023-03-29T04:18:51.787Z,8.55
2023-03-29T04:21:21.101Z,5.68
2023-03-29T04:23:48.060Z,6.07
2023-03-29T04:26:15.379Z,11.30
2023-03-29T04:28:51.293Z,5.45
2023-03-29T04:31:43.855Z,5.47
2023-03-29T04:34:21.565Z,6.38
2023-03-29T04:36:53.034Z,4.63
2023-03-29T04:39:22.902Z,6.85
2023-03-29T04:41:54.542Z,6.72
2023-03-29T04:44:26.679Z,6.45
2023-03-29T04:46:53.344Z,6.97
2023-03-29T04:49:41.285Z,7.25
2023-03-29T04:52:12.974Z,7.15
2023-03-29T04:54:39.493Z,8.10
2023-03-29T04:57:07.704Z,7.63
2023-03-29T05:00:01.380Z,6.78
2023-03-29T05:02:53.558Z,7.30
2023-03-29T05:05:21.045Z,8.32
2023-03-29T05:07:49.735Z,8.32
2023-03-29T05:10:20.685Z,6.38
2023-03-29T05:12:47.166Z,7.63
2023-03-29T05:15:14.789Z,7.50
2023-03-29T05:17:42.250Z,7.15
2023-03-29T05:20:13.148Z,8.30
2023-03-29T05:22:41.999Z,9.27
2023-03-29T05:25:13.304Z,8.20
2023-03-29T05:27:41.517Z,7.45
2023-03-29T05:30:16.125Z,8.73
2023-03-29T05:33:05.851Z,10.38
2023-03-29T05:35:35.992Z,7.03
2023-03-29T05:38:08.165Z,5.88
2023-03-29T05:40:35.851Z,6.35
2023-03-29T05:43:21.169Z,5.40
2023-03-29T05:45:48.566Z,6.70
2023-03-29T05:48:15.253Z,6.38
2023-03-29T05:50:47.168Z,6.93
2023-03-29T05:53:13.723Z,7.90
2023-03-29T05:55:41.314Z,6.22
2023-03-29T05:58:10.365Z,7.75
2023-03-29T06:00:38.525Z,8.32
2023-03-29T06:03:27.256Z,9.75
2023-03-29T06:05:59.271Z,5.72
2023-03-29T06:08:27.595Z,7.68
2023-03-29T06:11:22.327Z,6.45
2023-03-29T06:14:13.635Z,6.97
2023-03-29T06:16:46.409Z,5.43
2023-03-29T06:19:13.571Z,7.93
2023-03-29T06:21:41.280Z,6.57
2023-03-29T06:24:09.827Z,6.10
2023-03-29T06:26:42.071Z,7.63
2023-03-29T06:29:09.194Z,5.15
2023-03-29T06:31:36.619Z,8.35
2023-03-29T06:34:04.776Z,9.82
2023-03-29T06:36:51.110Z,8.15
2023-03-29T06:39:20.413Z,6.85
2023-03-29T06:42:19.997Z,8.05
2023-03-29T06:45:14.269Z,9.00
2023-03-29T06:47:46.312Z,10.15
2023-03-29T06:50:14.533Z,8.85
2023-03-29T06:52:51.148Z,12.10
2023-03-29T06:55:18.634Z,9.55
2023-03-29T06:57:45.213Z,8.80
2023-03-29T07:00:18.248Z,11.90
2023-03-29T07:03:06.519Z,9.57
2023-03-29T07:05:36.372Z,11.45
2023-03-29T07:08:07.293Z,9.20
2023-03-29T07:11:03.675Z,8.43
2023-03-29T07:13:30.606Z,11.82
2023-03-29T07:15:58.954Z,6.78
2023-03-29T07:18:58.879Z,11.60
2023-03-29T07:21:44.134Z,7.85
2023-03-29T07:24:11.025Z,10.45
2023-03-29T07:26:38.054Z,6.43
2023-03-29T07:29:05.121Z,8.15
2023-03-29T07:31:34.999Z,6.75
2023-03-29T07:34:24.692Z,7.50
2023-03-29T07:36:51.634Z,12.82
2023-03-29T07:39:18.382Z,5.00
2023-03-29T07:42:00.390Z,10.35
2023-03-29T07:44:29.457Z,5.93
2023-03-29T07:46:58.112Z,7.38
2023-03-29T07:49:24.697Z,7.43
2023-03-29T07:51:51.610Z,5.43
2023-03-29T07:54:18.229Z,6.07
2023-03-29T07:56:45.109Z,5.70
2023-03-29T07:59:25.273Z,10.23
2023-03-29T08:02:17.839Z,4.65
2023-03-29T08:04:46.909Z,5.63
2023-03-29T08:07:19.965Z,4.78
2023-03-29T08:10:17.924Z,6.35
2023-03-29T08:13:00.932Z,4.45
2023-03-29T08:15:39.854Z,6.18
2023-03-29T08:18:16.054Z,6.25
2023-03-29T08:20:42.642Z,4.95
2023-03-29T08:23:09.474Z,4.45
2023-03-29T08:25:52.228Z,4.80
2023-03-29T08:28:18.739Z,4.68
2023-03-29T08:30:50.020Z,6.57
2023-03-29T08:33:17.078Z,5.22
2023-03-29T08:35:45.031Z,4.78
2023-03-29T08:38:19.171Z,8.10
2023-03-29T08:40:49.022Z,7.53
2023-03-29T08:44:01.707Z,6.55
2023-03-29T08:47:13.742Z,4.60
2023-03-29T08:49:48.401Z,8.38
2023-03-29T08:52:42.842Z,4.88
2023-03-29T08:55:53.423Z,5.50
2023-03-29T08:58:43.471Z,6.75
2023-03-29T09:01:11.562Z,5.82
2023-03-29T09:04:11.696Z,7.57
2023-03-29T09:06:57.866Z,5.00
2023-03-29T09:09:34.196Z,6.13
2023-03-29T09:12:16.642Z,4.95
2023-03-29T09:15:15.449Z,6.72
2023-03-29T09:18:00.514Z,4.85
2023-03-29T09:20:33.223Z,7.38
2023-03-29T09:23:18.056Z,4.38
2023-03-29T09:26:05.724Z,4.60
2023-03-29T09:28:54.985Z,4.90
2023-03-29T09:31:28.521Z,7.55
2023-03-29T09:34:03.539Z,5.30
2023-03-29T09:36:59.358Z,3.17
2023-03-29T09:39:27.678Z,4.95
2023-03-29T09:42:03.807Z,6.97
2023-03-29T09:44:37.525Z,6.53
2023-03-29T09:47:20.553Z,3.90
2023-03-29T09:49:52.001Z,6.30
2023-03-29T09:52:20.833Z,4.47
2023-03-29T09:55:16.150Z,7.50
2023-03-29T09:57:52.316Z,3.88
2023-03-29T10:00:20.647Z,4.32
2023-03-29T10:02:54.708Z,4.45
2023-03-29T10:05:31.935Z,5.13
2023-03-29T10:08:01.425Z,3.92
2023-03-29T10:10:31.895Z,3.58
2023-03-29T10:13:06.870Z,4.32
2023-03-29T10:15:33.533Z,6.47
2023-03-29T10:18:03.642Z,5.07
2023-03-29T10:20:30.771Z,5.15
2023-03-29T10:22:59.429Z,6.82
2023-03-29T10:25:30.370Z,4.50
2023-03-29T10:28:11.822Z,5.10
2023-03-29T10:30:39.071Z,5.55
2023-03-29T10:33:15.948Z,6.30
2023-03-29T10:35:42.821Z,6.00
2023-03-29T10:38:14.767Z,7.32
2023-03-29T10:40:45.249Z,4.90
2023-03-29T10:43:19.261Z,3.42
2023-03-29T10:45:49.360Z,4.50
2023-03-29T10:48:17.779Z,7.63
2023-03-29T10:50:54.855Z,3.92
2023-03-29T10:53:28.083Z,7.22
2023-03-29T10:56:16.842Z,4.80
2023-03-29T10:58:49.483Z,4.15
2023-03-29T11:01:31.159Z,5.30
2023-03-29T11:04:10.157Z,5.38
2023-03-29T11:07:07.909Z,4.78
2023-03-29T11:10:04.814Z,3.15
2023-03-29T11:12:46.805Z,5.30
2023-03-29T11:15:54.804Z,4.40
2023-03-29T11:18:41.879Z,5.60
2023-03-29T11:21:20.280Z,5.93
2023-03-29T11:24:09.025Z,5.25
2023-03-29T11:26:50.698Z,5.03
2023-03-29T11:29:28.120Z,3.95
2023-03-29T11:32:03.236Z,3.35
2023-03-29T11:34:51.200Z,4.82
2023-03-29T11:37:28.747Z,4.00
2023-03-29T11:40:36.215Z,5.32
2023-03-29T11:43:09.498Z,3.50
2023-03-29T11:45:43.211Z,3.33
2023-03-29T11:48:21.178Z,3.05
2023-03-29T11:51:03.584Z,4.03
2023-03-29T11:53:44.225Z,6.05
2023-03-29T11:56:17.172Z,4.20
2023-03-29T11:58:50.765Z,2.92
2023-03-29T12:01:24.724Z,5.80
2023-03-29T12:03:57.078Z,3.78
2023-03-29T12:06:44.119Z,4.25
2023-03-29T12:09:19.302Z,4.88
2023-03-29T12:11:52.709Z,4.30
2023-03-29T12:14:32.435Z,4.47
2023-03-29T12:17:07.056Z,3.83
2023-03-29T12:19:43.525Z,4.03
2023-03-29T12:22:11.067Z,6.55
2023-03-29T12:24:45.906Z,3.83
2023-03-29T12:27:22.825Z,2.92
2023-03-29T12:30:23.454Z,3.30
2023-03-29T12:33:22.850Z,4.80
2023-03-29T12:36:30.221Z,4.15
2023-03-29T12:39:28.871Z,3.30
2023-03-29T12:42:18.086Z,2.83
2023-03-29T12:45:04.205Z,2.50
2023-03-29T12:47:43.263Z,7.75
2023-03-29T12:50:34.481Z,3.25
2023-03-29T12:53:27.073Z,3.88
2023-03-29T12:56:17.788Z,6.15
2023-03-29T12:58:59.595Z,4.53
2023-03-29T13:01:32.933Z,4.63
2023-03-29T13:03:59.432Z,5.85
2023-03-29T13:06:54.303Z,2.67
2023-03-29T13:09:49.164Z,3.90
2023-03-29T13:12:15.886Z,3.80
2023-03-29T13:14:45.453Z,5.53
2023-03-29T13:17:46.767Z,8.30
2023-03-29T13:20:37.226Z,4.40
2023-03-29T13:23:18.928Z,4.55
2023-03-29T13:26:21.467Z,5.75
2023-03-29T13:29:22.589Z,4.32
2023-03-29T13:32:01.749Z,5.20
2023-03-29T13:34:33.789Z,5.85
2023-03-29T13:37:34.470Z,5.43
2023-03-29T13:40:01.833Z,4.00
2023-03-29T13:42:37.070Z,5.03
2023-03-29T13:45:26.163Z,4.57
2023-03-29T13:48:05.365Z,6.18
2023-03-29T13:50:51.488Z,7.05
2023-03-29T13:53:33.118Z,5.78
2023-03-29T13:56:00.434Z,4.55
2023-03-29T13:58:42.748Z,4.78
2023-03-29T14:01:20.918Z,5.22
2023-03-29T14:03:51.505Z,4.32
2023-03-29T14:06:23.997Z,3.33
2023-03-29T14:08:52.410Z,3.35
2023-03-29T14:11:25.559Z,5.22
2023-03-29T14:13:57.569Z,4.25
2023-03-29T14:16:30.263Z,5.72
2023-03-29T14:19:02.317Z,4.07
2023-03-29T14:21:29.295Z,4.88
2023-03-29T14:24:00.684Z,4.40
2023-03-29T14:26:33.304Z,3.33
2023-03-29T14:29:01.974Z,4.20
2023-03-29T14:31:36.990Z,6.07
2023-03-29T14:34:06.727Z,5.43
2023-03-29T14:36:34.117Z,5.25
2023-03-29T14:39:19.936Z,7.32
2023-03-29T14:41:52.705Z,4.20
2023-03-29T14:44:22.603Z,4.40
2023-03-29T14:46:49.568Z,5.35
2023-03-29T14:49:18.708Z,4.65
2023-03-29T14:51:47.072Z,5.22
2023-03-29T14:54:24.069Z,5.18
2023-03-29T14:56:51.560Z,8.73
2023-03-29T14:59:36.279Z,5.68
2023-03-29T15:02:03.662Z,4.35
2023-03-29T15:04:37.390Z,4.38
2023-03-29T15:07:04.940Z,4.32
2023-03-29T15:09:34.424Z,5.57
2023-03-29T15:12:02.949Z,5.03
2023-03-29T15:14:36.985Z,6.45
2023-03-29T15:17:36.293Z,7.45
2023-03-29T15:20:23.094Z,5.10
2023-03-29T15:23:16.137Z,5.80
2023-03-29T15:26:07.357Z,7.70
2023-03-29T15:28:35.550Z,5.60
2023-03-29T15:31:14.814Z,8.07
2023-03-29T15:33:42.308Z,5.50
2023-03-29T15:36:11.867Z,7.63
2023-03-29T15:41:10.515Z,6.70
2023-03-29T15:43:37.252Z,6.80
2023-03-29T15:46:04.351Z,6.80
2023-03-29T15:48:33.588Z,6.35
2023-03-29T15:51:05.465Z,5.20
2023-03-29T15:53:33.325Z,6.95
2023-03-29T15:56:01.971Z,5.10
2023-03-29T15:58:33.803Z,5.05
2023-03-29T16:01:34.537Z,7.95
2023-03-29T16:04:06.881Z,6.82
2023-03-29T16:06:34.538Z,4.53
2023-03-29T16:09:01.034Z,7.50
2023-03-29T16:11:28.350Z,6.45
2023-03-29T16:13:56.307Z,7.82
2023-03-29T16:16:23.487Z,6.28
2023-03-29T16:18:50.615Z,6.68
2023-03-29T16:21:19.651Z,6.15
2023-03-29T16:23:47.326Z,6.22
2023-03-29T16:26:17.611Z,5.43
2023-03-29T16:28:44.182Z,8.90
2023-03-29T16:31:12.418Z,5.20
2023-03-29T16:33:40.564Z,6.28
2023-03-29T16:36:08.096Z,11.10
2023-03-29T16:38:34.885Z,6.40
2023-03-29T16:41:04.576Z,6.65
2023-03-29T16:43:31.689Z,6.50
2023-03-29T16:45:58.215Z,8.55
2023-03-29T16:48:24.917Z,7.07
2023-03-29T16:50:51.758Z,7.45
2023-03-29T16:53:18.808Z,6.55
2023-03-29T16:55:47.238Z,6.32
2023-03-29T16:58:15.539Z,9.20
2023-03-29T17:00:43.391Z,7.60
2023-03-29T17:03:10.990Z,7.38
2023-03-29T17:05:41.453Z,6.95
2023-03-29T17:08:10.223Z,6.95
2023-03-29T17:10:39.522Z,5.97
2023-03-29T17:13:06.632Z,7.57
2023-03-29T17:15:33.335Z,8.68
2023-03-29T17:17:59.989Z,6.55
2023-03-29T17:20:26.748Z,6.25
2023-03-29T17:22:55.933Z,7.22
2023-03-29T17:25:23.533Z,7.82
2023-03-29T17:27:51.641Z,5.70
2023-03-29T17:30:18.152Z,8.80
2023-03-29T17:32:45.843Z,8.25
2023-03-29T17:35:12.785Z,6.75
2023-03-29T17:37:39.412Z,9.05
2023-03-29T17:40:15.289Z,5.78
2023-03-29T17:42:43.163Z,6.00
2023-03-29T17:45:11.411Z,9.45
2023-03-29T17:47:38.635Z,8.43
2023-03-29T17:50:06.997Z,6.70
2023-03-29T17:52:33.573Z,8.95
2023-03-29T17:55:00.457Z,6.70
2023-03-29T17:57:27.172Z,7.55
2023-03-29T17:59:53.802Z,7.35
2023-03-29T18:02:22.654Z,6.35
2023-03-29T18:04:49.946Z,6.38
2023-03-29T18:07:17.681Z,9.27
2023-03-29T18:09:44.287Z,8.95
2023-03-29T18:12:11.002Z,11.52
2023-03-29T18:14:37.619Z,7.93
2023-03-29T18:17:04.344Z,9.18
2023-03-29T18:19:33.946Z,7.70
2023-03-29T18:22:00.987Z,8.85
2023-03-29T18:24:27.798Z,7.97
2023-03-29T18:26:54.534Z,13.55
2023-03-29T18:29:21.097Z,10.23
2023-03-29T18:31:47.813Z,12.32
2023-03-29T18:34:14.635Z,10.25
2023-03-29T18:36:41.253Z,8.80
2023-03-29T18:39:07.777Z,7.65
2023-03-29T18:41:37.160Z,8.88
2023-03-29T18:44:04.310Z,8.15
2023-03-29T18:46:31.882Z,8.27
2023-03-29T18:49:01.075Z,10.45
2023-03-29T18:51:31.091Z,7.35
2023-03-29T18:53:57.752Z,8.57
2023-03-29T18:56:24.348Z,7.63
2023-03-29T18:58:51.373Z,7.55
2023-03-29T19:01:18.030Z,12.27
2023-03-29T19:03:44.796Z,8.50
2023-03-29T19:06:13.070Z,9.00
2023-03-29T19:08:41.236Z,11.82
2023-03-29T19:11:11.489Z,13.07
2023-03-29T19:13:38.185Z,12.30
2023-03-29T19:16:05.337Z,11.00
2023-03-29T19:18:32.523Z,13.25
2023-03-29T19:20:59.127Z,10.52
2023-03-29T19:23:27.528Z,12.57
2023-03-29T19:25:56.579Z,11.40
2023-03-29T19:28:23.829Z,9.82
2023-03-29T19:30:50.563Z,7.55
2023-03-29T19:33:17.387Z,9.52
2023-03-29T19:35:44.484Z,9.90
2023-03-29T19:38:11.640Z,11.13
2023-03-29T19:40:38.431Z,14.57
2023-03-29T19:43:05.006Z,12.88
2023-03-29T19:45:35.956Z,11.05
2023-03-29T19:48:03.782Z,13.10
2023-03-29T19:50:31.666Z,11.52
2023-03-29T19:52:58.487Z,16.42
2023-03-29T19:55:25.977Z,9.20
2023-03-29T19:57:52.714Z,10.60
2023-03-29T20:00:24.330Z,10.00
2023-03-29T20:02:55.506Z,10.15
2023-03-29T20:05:22.763Z,9.48
2023-03-29T20:07:49.978Z,12.77
2023-03-29T20:10:16.897Z,9.85
2023-03-29T20:12:43.451Z,9.75
2023-03-29T20:15:10.488Z,9.05
2023-03-29T20:17:40.655Z,12.13
2023-03-29T20:20:12.669Z,10.88
2023-03-29T20:22:42.073Z,11.00
2023-03-29T20:25:09.749Z,9.93
2023-03-29T20:27:36.519Z,9.52
2023-03-29T20:30:03.792Z,8.90
2023-03-29T20:32:30.803Z,8.98
2023-03-29T20:34:57.506Z,8.52
2023-03-29T20:37:25.813Z,9.15
2023-03-29T20:39:53.037Z,7.00
2023-03-29T20:42:24.442Z,8.00
2023-03-29T20:44:55.733Z,6.80
2023-03-29T20:47:23.428Z,10.02
2023-03-29T20:49:54.247Z,8.18
2023-03-29T20:52:22.440Z,8.18
2023-03-29T20:54:49.641Z,8.50
2023-03-29T20:57:19.613Z,9.57
2023-03-29T20:59:46.623Z,8.52
2023-03-29T21:02:21.049Z,9.98
2023-03-29T21:04:52.435Z,8.20
2023-03-29T21:07:20.296Z,9.13
2023-03-29T21:09:51.077Z,7.40
2023-03-29T21:12:17.747Z,10.60
2023-03-29T21:14:44.848Z,10.52
2023-03-29T21:17:11.588Z,10.18
2023-03-29T21:19:39.448Z,8.02
2023-03-29T21:22:06.695Z,11.45
2023-03-29T21:24:33.944Z,15.98
2023-03-29T21:27:00.756Z,12.77
2023-03-29T21:29:27.539Z,10.15
2023-03-29T21:31:54.505Z,16.60
2023-03-29T21:34:21.310Z,8.57
2023-03-29T21:36:47.990Z,9.75
2023-03-29T21:39:14.643Z,9.20
2023-03-29T21:41:41.600Z,11.63
2023-03-29T21:44:08.483Z,8.43
2023-03-29T21:46:35.475Z,12.38
2023-03-29T21:49:02.473Z,8.50
2023-03-29T21:51:29.144Z,10.85
2023-03-29T21:53:55.971Z,7.60
2023-03-29T21:56:23.121Z,8.52
2023-03-29T21:58:49.667Z,8.93
2023-03-29T22:01:16.309Z,7.25
2023-03-29T22:03:43.142Z,7.95
2023-03-29T22:06:13.913Z,9.30
2023-03-29T22:08:40.877Z,8.05
2023-03-29T22:11:10.879Z,8.75
2023-03-29T22:13:37.815Z,8.20
2023-03-29T22:16:05.026Z,8.85
2023-03-29T22:18:42.134Z,9.23
2023-03-29T22:21:15.138Z,10.27
2023-03-29T22:23:42.664Z,10.82
2023-03-29T22:26:11.711Z,9.93
2023-03-29T22:28:39.003Z,10.23
2023-03-29T22:31:09.385Z,12.73
2023-03-29T22:33:37.221Z,7.60
2023-03-29T22:36:12.887Z,10.82
2023-03-29T22:38:39.447Z,9.45
2023-03-29T22:41:06.590Z,7.53
2023-03-29T22:43:33.046Z,8.65
2023-03-29T22:46:04.885Z,9.88
2023-03-29T22:48:31.518Z,8.38
2023-03-29T22:50:58.096Z,7.53
2023-03-29T22:53:24.670Z,6.68
2023-03-29T22:55:51.703Z,7.60
2023-03-29T22:58:18.186Z,15.05
2023-03-29T23:00:44.631Z,9.90
2023-03-29T23:03:11.359Z,7.90
2023-03-29T23:05:37.811Z,8.15
2023-03-29T23:08:04.619Z,8.70
2023-03-29T23:10:31.156Z,9.00
2023-03-29T23:13:08.634Z,8.43
2023-03-29T23:15:37.478Z,6.05
2023-03-29T23:18:05.531Z,7.95
2023-03-29T23:20:32.645Z,9.98
2023-03-29T23:22:59.742Z,7.65
2023-03-29T23:25:26.935Z,7.70
2023-03-29T23:27:54.645Z,8.05
2023-03-29T23:30:21.963Z,7.82
2023-03-29T23:32:50.088Z,8.70
2023-03-29T23:35:16.917Z,8.63
2023-03-29T23:37:43.634Z,8.15
2023-03-29T23:40:14.513Z,9.63
2023-03-29T23:42:43.907Z,8.68
2023-03-29T23:45:15.804Z,11.07
2023-03-29T23:47:44.008Z,7.45
2023-03-29T23:50:13.423Z,6.60
2023-03-29T23:52:41.314Z,7.28
2023-03-29T23:55:12.468Z,11.02
2023-03-29T23:57:39.263Z,9.43
